createdAt,value
2023-05-17T00:03:31.948Z,39.25
2023-05-17T00:07:33.409Z,38.73
2023-05-17T00:11:35.544Z,39.08
2023-05-17T00:15:37.046Z,39.26
2023-05-17T00:19:38.515Z,39.46
2023-05-17T00:23:39.963Z,39.60
2023-05-17T00:27:41.313Z,39.54
2023-05-17T00:31:42.727Z,39.79
2023-05-17T00:35:44.038Z,39.93
2023-05-17T00:39:45.466Z,39.92
2023-05-17T00:43:46.896Z,40.37
2023-05-17T00:47:48.420Z,40.51
2023-05-17T00:51:49.965Z,40.10
2023-05-17T00:55:51.954Z,40.48
2023-05-17T00:59:55.390Z,40.52
2023-05-17T01:03:57.564Z,40.58
2023-05-17T01:07:59.122Z,40.68
2023-05-17T01:12:22.273Z,40.80
2023-05-17T01:16:54.547Z,41.21
2023-05-17T01:21:00.300Z,40.85
2023-05-17T01:25:12.382Z,40.75
2023-05-17T01:29:16.194Z,41.06
2023-05-17T01:33:19.598Z,40.80
2023-05-17T01:37:21.384Z,41.04
2023-05-17T01:41:40.708Z,41.22
2023-05-17T01:45:50.611Z,41.51
2023-05-17T01:49:55.255Z,40.72
2023-05-17T01:54:01.111Z,41.35
2023-05-17T01:58:06.209Z,40.94
2023-05-17T02:02:09.397Z,40.94
2023-05-17T02:06:11.736Z,41.30
2023-05-17T02:10:13.450Z,41.37
2023-05-17T02:14:14.897Z,41.42
2023-05-17T02:18:16.664Z,41.47
2023-05-17T02:22:18.183Z,41.17
2023-05-17T02:26:19.603Z,41.65
2023-05-17T02:30:22.238Z,41.67
2023-05-17T02:34:23.701Z,41.78
2023-05-17T02:38:25.197Z,41.94
2023-05-17T02:42:26.746Z,42.44
2023-05-17T02:46:28.204Z,42.23
2023-05-17T02:50:29.582Z,42.37
2023-05-17T02:54:30.978Z,42.98
2023-05-17T02:58:32.351Z,43.11
2023-05-17T03:02:33.828Z,42.90
2023-05-17T03:06:35.329Z,43.16
2023-05-17T03:10:36.658Z,43.81
2023-05-17T03:14:38.044Z,43.28
2023-05-17T03:18:39.557Z,43.50
2023-05-17T03:22:41.026Z,43.83
2023-05-17T03:26:42.499Z,43.28
2023-05-17T03:30:44.030Z,43.75
2023-05-17T03:34:45.373Z,44.00
2023-05-17T03:38:46.790Z,44.28
2023-05-17T03:42:48.324Z,43.96
2023-05-17T03:46:49.750Z,44.44
2023-05-17T03:50:51.646Z,44.00
2023-05-17T03:54:53.038Z,43.59
2023-05-17T03:58:54.541Z,44.29
2023-05-17T04:02:56.039Z,43.46
2023-05-17T04:06:57.901Z,43.76
2023-05-17T04:10:59.784Z,43.88
2023-05-17T04:15:01.851Z,44.16
2023-05-17T04:19:03.463Z,43.58
2023-05-17T04:23:04.971Z,43.18
2023-05-17T04:27:06.863Z,43.64
2023-05-17T04:31:08.731Z,43.27
2023-05-17T04:35:10.391Z,42.51
2023-05-17T04:39:12.009Z,43.01
2023-05-17T04:43:13.457Z,42.66
2023-05-17T04:47:14.875Z,42.21
2023-05-17T04:51:16.237Z,42.82
2023-05-17T04:55:18.660Z,42.43
2023-05-17T04:59:20.102Z,41.72
2023-05-17T05:03:23.051Z,41.56
2023-05-17T05:07:24.497Z,41.79
2023-05-17T05:11:25.938Z,40.89
2023-05-17T05:15:27.573Z,40.25
2023-05-17T05:19:29.128Z,39.96
2023-05-17T05:23:30.588Z,40.53
2023-05-17T05:27:32.004Z,38.83
2023-05-17T05:31:33.421Z,38.71
2023-05-17T05:35:34.956Z,38.57
2023-05-17T05:39:36.615Z,39.01
2023-05-17T05:43:38.065Z,39.68
2023-05-17T05:47:39.568Z,40.24
2023-05-17T05:51:40.983Z,42.31
2023-05-17T05:55:42.876Z,42.52
2023-05-17T05:59:44.391Z,42.15
2023-05-17T06:03:45.830Z,43.04
2023-05-17T06:07:47.248Z,43.79
2023-05-17T06:11:53.413Z,42.00
2023-05-17T06:15:55.821Z,40.74
2023-05-17T06:19:57.410Z,39.99
2023-05-17T06:23:58.878Z,38.67
2023-05-17T06:28:02.741Z,38.11
2023-05-17T06:32:04.428Z,36.74
2023-05-17T06:36:06.184Z,36.51
2023-05-17T06:40:15.970Z,32.92
2023-05-17T06:44:18.409Z,32.58
2023-05-17T06:48:20.031Z,32.98
2023-05-17T06:52:21.607Z,33.67
2023-05-17T06:56:24.690Z,31.71
2023-05-17T07:00:26.430Z,31.88
2023-05-17T07:04:27.964Z,31.04
2023-05-17T07:08:29.514Z,29.75
2023-05-17T07:12:30.877Z,29.78
2023-05-17T07:16:32.262Z,28.14
2023-05-17T07:20:33.724Z,25.63
2023-05-17T07:24:38.012Z,28.88
2023-05-17T07:28:39.393Z,29.07
2023-05-17T07:32:40.921Z,30.41
2023-05-17T07:36:42.262Z,27.07
2023-05-17T07:40:43.604Z,27.18
2023-05-17T07:44:45.044Z,28.18
2023-05-17T07:48:46.636Z,27.45
2023-05-17T07:52:48.331Z,27.86
2023-05-17T07:56:49.977Z,26.85
2023-05-17T08:00:51.503Z,28.00
2023-05-17T08:04:53.084Z,28.89
2023-05-17T08:08:54.542Z,26.75
2023-05-17T08:12:56.124Z,28.84
2023-05-17T08:16:57.485Z,28.54
2023-05-17T08:21:00.311Z,27.53
2023-05-17T08:25:01.981Z,28.57
2023-05-17T08:29:04.740Z,26.13
2023-05-17T08:33:06.310Z,24.29
2023-05-17T08:37:08.192Z,27.15
2023-05-17T08:41:09.914Z,24.81
2023-05-17T08:45:11.944Z,25.69
2023-05-17T08:49:15.829Z,24.07
2023-05-17T08:53:18.087Z,23.36
2023-05-17T08:57:20.291Z,21.45
2023-05-17T09:01:23.524Z,22.23
2023-05-17T09:05:28.106Z,22.54
2023-05-17T09:09:29.551Z,22.38
2023-05-17T09:13:31.589Z,26.11
2023-05-17T09:17:33.965Z,24.74
2023-05-17T09:21:36.759Z,23.40
2023-05-17T09:25:38.093Z,21.63
2023-05-17T09:29:42.233Z,23.07
2023-05-17T09:33:45.759Z,20.26
2023-05-17T09:37:47.264Z,20.76
2023-05-17T09:41:49.972Z,20.39
2023-05-17T09:45:58.619Z,19.58
2023-05-17T09:50:03.597Z,17.67
2023-05-17T09:54:06.820Z,19.72
2023-05-17T09:58:08.478Z,19.38
2023-05-17T10:02:19.689Z,17.59
2023-05-17T10:06:43.663Z,18.42
2023-05-17T10:10:49.341Z,17.24
2023-05-17T10:14:52.774Z,15.80
2023-05-17T10:18:54.641Z,16.28
2023-05-17T10:22:58.662Z,17.94
2023-05-17T10:27:00.446Z,19.74
2023-05-17T10:31:04.120Z,18.94
2023-05-17T10:35:11.984Z,19.40
2023-05-17T10:39:13.728Z,18.73
2023-05-17T10:43:16.273Z,19.37
2023-05-17T10:47:17.997Z,20.12
2023-05-17T10:51:31.283Z,19.71
2023-05-17T10:55:43.345Z,18.55
2023-05-17T11:00:03.932Z,20.88
2023-05-17T11:04:25.699Z,18.65
2023-05-17T11:08:27.572Z,21.83
2023-05-17T11:12:38.505Z,18.95
2023-05-17T11:16:41.812Z,16.63
2023-05-17T11:20:43.440Z,16.54
2023-05-17T11:24:48.060Z,17.04
2023-05-17T11:29:00.447Z,16.98
2023-05-17T11:33:07.203Z,19.19
2023-05-17T11:37:26.906Z,22.31
2023-05-17T11:41:28.644Z,20.15
2023-05-17T11:45:40.792Z,18.55
2023-05-17T11:49:42.346Z,20.24
2023-05-17T11:53:44.625Z,19.11
2023-05-17T11:57:46.288Z,17.62
2023-05-17T12:01:49.643Z,18.80
2023-05-17T12:06:03.376Z,19.17
2023-05-17T12:10:06.428Z,20.47
2023-05-17T12:14:07.998Z,19.26
2023-05-17T12:18:09.596Z,19.64
2023-05-17T12:22:15.067Z,19.66
2023-05-17T12:26:18.001Z,20.25
2023-05-17T12:30:19.722Z,19.18
2023-05-17T12:34:22.117Z,19.19
2023-05-17T12:38:26.180Z,21.41
2023-05-17T12:42:27.883Z,23.36
2023-05-17T12:46:29.609Z,23.60
2023-05-17T12:50:31.678Z,21.02
2023-05-17T12:54:33.327Z,21.14
2023-05-17T12:58:35.114Z,21.84
2023-05-17T13:02:36.636Z,24.14
2023-05-17T13:06:55.130Z,21.87
2023-05-17T13:11:28.889Z,21.77
2023-05-17T13:15:32.699Z,21.04
2023-05-17T13:19:36.118Z,20.85
2023-05-17T13:23:43.097Z,21.75
2023-05-17T13:27:48.523Z,22.26
2023-05-17T13:31:49.900Z,21.63
2023-05-17T13:35:51.322Z,21.97
2023-05-17T13:39:55.212Z,20.98
2023-05-17T13:43:57.425Z,21.58
2023-05-17T13:47:59.588Z,21.09
2023-05-17T13:52:01.088Z,21.71
2023-05-17T13:56:02.484Z,22.02
2023-05-17T14:00:05.219Z,22.57
2023-05-17T14:04:06.819Z,22.41
2023-05-17T14:08:08.862Z,25.46
2023-05-17T14:12:10.479Z,24.33
2023-05-17T14:16:11.833Z,22.55
2023-05-17T14:20:14.332Z,23.58
2023-05-17T14:24:16.145Z,22.46
2023-05-17T14:28:20.767Z,22.75
2023-05-17T14:32:22.160Z,23.85
2023-05-17T14:36:23.714Z,21.15
2023-05-17T14:40:25.192Z,21.61
2023-05-17T14:44:27.123Z,22.77
2023-05-17T14:48:28.572Z,24.68
2023-05-17T14:52:30.561Z,22.49
2023-05-17T14:56:32.419Z,22.06
2023-05-17T15:00:34.720Z,21.56
2023-05-17T15:04:36.962Z,23.62
2023-05-17T15:08:39.135Z,22.11
2023-05-17T15:12:40.689Z,21.20
2023-05-17T15:16:42.196Z,20.78
2023-05-17T15:20:43.598Z,20.75
2023-05-17T15:24:45.334Z,21.09
2023-05-17T15:28:49.740Z,23.26
2023-05-17T15:32:51.512Z,21.78
2023-05-17T15:36:55.767Z,21.54
2023-05-17T15:41:05.441Z,22.15
2023-05-17T15:45:07.474Z,21.17
2023-05-17T15:49:08.949Z,22.20
2023-05-17T15:53:10.493Z,22.27
2023-05-17T15:57:11.868Z,21.88
2023-05-17T16:01:13.320Z,22.24
2023-05-17T16:05:14.900Z,24.83
2023-05-17T16:09:16.791Z,22.55
2023-05-17T16:13:18.254Z,21.19
2023-05-17T16:17:19.719Z,22.35
2023-05-17T16:21:21.219Z,21.13
2023-05-17T16:25:27.784Z,21.75
2023-05-17T16:29:29.287Z,21.57
2023-05-17T16:33:30.905Z,22.06
2023-05-17T16:37:32.346Z,23.43
2023-05-17T16:41:33.850Z,22.56
2023-05-17T16:45:35.315Z,22.34
2023-05-17T16:49:37.166Z,22.66
2023-05-17T16:53:38.616Z,22.69
2023-05-17T16:57:40.102Z,23.67
2023-05-17T17:01:41.689Z,21.85
2023-05-17T17:05:43.160Z,22.50
2023-05-17T17:09:44.615Z,23.84
2023-05-17T17:13:46.029Z,23.63
2023-05-17T17:17:47.513Z,22.50
2023-05-17T17:21:49.162Z,22.75
2023-05-17T17:25:50.885Z,22.32
2023-05-17T17:29:52.315Z,22.16
2023-05-17T17:33:53.755Z,21.84
2023-05-17T17:37:55.228Z,22.64
2023-05-17T17:41:56.711Z,22.42
2023-05-17T17:45:58.153Z,22.24
2023-05-17T17:49:59.597Z,23.85
2023-05-17T17:54:03.546Z,22.85
2023-05-17T17:58:05.206Z,21.97
2023-05-17T18:02:06.825Z,22.75
2023-05-17T18:06:08.301Z,22.42
2023-05-17T18:10:10.043Z,22.88
2023-05-17T18:14:12.114Z,22.69
2023-05-17T18:18:13.531Z,22.58
2023-05-17T18:22:18.848Z,23.36
2023-05-17T18:26:21.289Z,23.54
2023-05-17T18:30:22.727Z,23.39
2023-05-17T18:34:25.504Z,25.69
2023-05-17T18:38:26.897Z,25.34
2023-05-17T18:42:28.921Z,26.31
2023-05-17T18:46:30.378Z,25.78
2023-05-17T18:50:32.122Z,27.03
2023-05-17T18:54:33.641Z,26.63
2023-05-17T18:58:35.124Z,26.81
2023-05-17T19:02:36.534Z,25.88
2023-05-17T19:06:41.279Z,27.29
2023-05-17T19:10:42.739Z,27.06
2023-05-17T19:14:44.124Z,27.44
2023-05-17T19:18:45.755Z,28.04
2023-05-17T19:22:47.124Z,28.41
2023-05-17T19:26:48.645Z,27.50
2023-05-17T19:30:49.972Z,26.79
2023-05-17T19:34:51.363Z,28.22
2023-05-17T19:38:53.174Z,27.28
2023-05-17T19:42:54.604Z,29.40
2023-05-17T19:46:56.281Z,27.72
2023-05-17T19:50:57.733Z,27.82
2023-05-17T19:54:59.214Z,28.34
2023-05-17T19:59:00.605Z,27.54
2023-05-17T20:03:02.084Z,27.32
2023-05-17T20:07:03.505Z,28.62
2023-05-17T20:11:05.964Z,28.41
2023-05-17T20:15:08.125Z,28.31
2023-05-17T20:19:09.545Z,28.15
2023-05-17T20:23:13.354Z,27.99
2023-05-17T20:27:15.460Z,28.43
2023-05-17T20:31:16.943Z,28.92
2023-05-17T20:35:18.371Z,29.24
2023-05-17T20:39:22.140Z,29.56
2023-05-17T20:43:28.665Z,28.09
2023-05-17T20:47:30.049Z,29.81
2023-05-17T20:51:31.775Z,30.51
2023-05-17T20:55:33.282Z,28.97
2023-05-17T20:59:34.652Z,30.45
2023-05-17T21:03:39.658Z,28.52
2023-05-17T21:07:41.399Z,30.01
2023-05-17T21:11:44.037Z,29.05
2023-05-17T21:15:46.550Z,29.77
2023-05-17T21:19:47.932Z,29.55
2023-05-17T21:23:49.627Z,29.94
2023-05-17T21:27:51.358Z,29.69
2023-05-17T21:31:52.769Z,29.50
2023-05-17T21:35:54.191Z,28.90
2023-05-17T21:39:55.711Z,29.04
2023-05-17T21:43:57.211Z,31.29
2023-05-17T21:47:58.799Z,29.78
2023-05-17T21:52:00.276Z,29.84
2023-05-17T21:56:03.241Z,30.83
2023-05-17T22:00:07.696Z,30.79
2023-05-17T22:04:09.445Z,29.68
2023-05-17T22:08:10.932Z,30.86
2023-05-17T22:12:12.590Z,30.56
2023-05-17T22:16:14.110Z,32.01
2023-05-17T22:20:17.034Z,30.58
2023-05-17T22:24:19.950Z,33.12
2023-05-17T22:28:22.163Z,31.50
2023-05-17T22:32:23.674Z,32.19
2023-05-17T22:36:26.665Z,31.94
2023-05-17T22:40:28.234Z,30.99
2023-05-17T22:44:30.064Z,31.55
2023-05-17T22:48:32.257Z,32.41
2023-05-17T22:52:33.720Z,33.81
2023-05-17T22:56:35.473Z,34.14
2023-05-17T23:00:37.062Z,33.92
2023-05-17T23:04:39.999Z,33.74
2023-05-17T23:08:42.013Z,32.29
2023-05-17T23:12:43.410Z,33.48
2023-05-17T23:16:45.551Z,33.10
2023-05-17T23:20:48.827Z,34.18
2023-05-17T23:24:57.705Z,33.50
2023-05-17T23:28:59.207Z,33.98
2023-05-17T23:33:02.467Z,32.94
2023-05-17T23:37:03.975Z,34.13
2023-05-17T23:41:05.510Z,33.29
2023-05-17T23:45:07.878Z,34.88
2023-05-17T23:49:10.534Z,34.20
2023-05-17T23:53:11.973Z,35.21
2023-05-17T23:57:13.908Z,33.93
